^^
WestSenecaWeather Station Historical Data
 
Daily Summary for February 25, 2018 Units:  English    Metric   Both
Daily Weekly Monthly Yearly Custom
  Current: High: Low: Average:
Temperature: 55.8 °F 55.8 °F 39.0 °F 45.1 °F
Dew Point: 51.4 °F 51.5 °F 34.8 °F 41.7 °F
Humidity: 85% 95% 82% 88%
Wind Speed: 17.3mph 25.3mph 3.0mph 10.2mph
Wind Gust: 17.3mph 25.3mph - -
WindNW - - West
Pressure: 29.61 in 30.03 in 29.59 in -
Precipitation: 0.12 in      
Historical Graphs
 
 
Tabular Data for February 25, 2018
Time Temperature Dew Point Pressure Wind Wind Speed Wind Gust Humidity Rainfall Rate (Hourly) solar
00:03 39.2 °F 34.8 °F 30.03 in South 3.5 mph 3.5 mph 84% 0.00 in 0.0 W/m2
00:08 39.3 °F 34.9 °F 30.03 in South 5.8 mph 5.8 mph 84% 0.00 in 0.0 W/m2
00:13 39.2 °F 34.8 °F 30.02 in SSW 7.0 mph 7.0 mph 84% 0.00 in 0.0 W/m2
00:18 39.3 °F 34.9 °F 30.02 in SSW 6.9 mph 6.9 mph 84% 0.00 in 0.0 W/m2
00:23 39.4 °F 35.0 °F 30.01 in SSW 6.9 mph 6.9 mph 84% 0.00 in 0.0 W/m2
00:28 39.4 °F 35.0 °F 30.00 in South 6.9 mph 6.9 mph 84% 0.00 in 0.0 W/m2
00:33 39.5 °F 35.1 °F 30.00 in SSW 8.1 mph 8.1 mph 84% 0.00 in 0.0 W/m2
00:38 39.6 °F 35.2 °F 29.99 in SSW 5.8 mph 5.8 mph 84% 0.00 in 0.0 W/m2
00:43 39.7 °F 35.3 °F 29.99 in North 7.0 mph 7.0 mph 84% 0.00 in 0.0 W/m2
00:48 39.8 °F 35.1 °F 29.98 in North 10.4 mph 10.4 mph 83% 0.00 in 0.0 W/m2
00:53 39.8 °F 35.1 °F 29.97 in SW 8.1 mph 8.1 mph 83% 0.00 in 0.0 W/m2
00:58 39.9 °F 35.2 °F 29.97 in South 9.2 mph 9.2 mph 83% 0.00 in 0.0 W/m2
01:03 40.0 °F 35.6 °F 29.96 in North 11.5 mph 11.5 mph 84% 0.00 in 0.0 W/m2
01:08 39.9 °F 35.5 °F 29.96 in SW 6.9 mph 6.9 mph 84% 0.00 in 0.0 W/m2
01:13 39.9 °F 35.8 °F 29.95 in SW 5.8 mph 5.8 mph 85% 0.00 in 0.0 W/m2
01:18 39.8 °F 35.7 °F 29.94 in SW 8.1 mph 8.1 mph 85% 0.00 in 0.0 W/m2
01:23 39.7 °F 35.9 °F 29.94 in SSW 10.4 mph 10.4 mph 86% 0.00 in 0.0 W/m2
01:28 39.6 °F 35.8 °F 29.93 in WSW 9.0 mph 9.0 mph 86% 0.00 in 0.0 W/m2
01:33 39.6 °F 36.0 °F 29.93 in SW 8.1 mph 8.1 mph 87% 0.00 in 0.0 W/m2
01:38 39.5 °F 36.0 °F 29.92 in SW 6.9 mph 6.9 mph 87% 0.00 in 0.0 W/m2
01:43 39.4 °F 36.1 °F 29.92 in SW 9.2 mph 9.2 mph 88% 0.01 in 0.0 W/m2
01:48 39.3 °F 36.3 °F 29.91 in SSW 6.9 mph 6.9 mph 89% 0.01 in 0.0 W/m2
01:54 39.1 °F 36.1 °F 29.90 in SSW 8.1 mph 8.1 mph 89% 0.01 in 0.0 W/m2
01:59 39.1 °F 36.4 °F 29.89 in SSW 8.1 mph 8.1 mph 90% 0.01 in 0.0 W/m2
02:04 39.0 °F 36.3 °F 29.88 in SW 8.1 mph 8.1 mph 90% 0.02 in 0.0 W/m2
02:09 39.0 °F 36.6 °F 29.87 in SW 4.6 mph 4.6 mph 91% 0.02 in 0.0 W/m2
02:14 39.0 °F 36.6 °F 29.86 in SSW 9.2 mph 9.2 mph 91% 0.02 in 0.0 W/m2
02:19 39.1 °F 36.7 °F 29.86 in SW 10.4 mph 10.4 mph 91% 0.03 in 0.0 W/m2
02:24 39.1 °F 37.0 °F 29.86 in SSW 4.6 mph 4.6 mph 92% 0.03 in 0.0 W/m2
02:29 39.2 °F 37.1 °F 29.85 in SW 6.9 mph 6.9 mph 92% 0.03 in 0.0 W/m2
02:34 39.2 °F 37.1 °F 29.85 in SSW 8.1 mph 8.1 mph 92% 0.03 in 0.0 W/m2
02:39 39.2 °F 37.3 °F 29.84 in SSW 6.9 mph 6.9 mph 93% 0.04 in 0.0 W/m2
02:44 39.3 °F 37.4 °F 29.84 in South 3.5 mph 3.5 mph 93% 0.03 in 0.0 W/m2
02:49 39.3 °F 37.4 °F 29.84 in SW 8.1 mph 8.1 mph 93% 0.04 in 0.0 W/m2
02:54 39.4 °F 37.5 °F 29.83 in SW 5.8 mph 5.8 mph 93% 0.04 in 0.0 W/m2
02:59 39.5 °F 37.6 °F 29.82 in SSW 4.6 mph 4.6 mph 93% 0.05 in 0.0 W/m2
03:04 39.6 °F 38.0 °F 29.82 in North 6.9 mph 6.9 mph 94% 0.04 in 0.0 W/m2
03:09 39.7 °F 38.1 °F 29.81 in SSW 5.8 mph 5.8 mph 94% 0.05 in 0.0 W/m2
03:14 39.9 °F 38.3 °F 29.81 in SSW 3.5 mph 3.5 mph 94% 0.05 in 0.0 W/m2
03:19 40.1 °F 38.5 °F 29.81 in SW 3.5 mph 3.5 mph 94% 0.04 in 0.0 W/m2
03:25 40.4 °F 38.8 °F 29.80 in West 4.0 mph 4.0 mph 94% 0.05 in 0.0 W/m2
03:30 40.9 °F 39.6 °F 29.80 in West 5.0 mph 5.0 mph 95% 0.05 in 0.0 W/m2
03:35 41.4 °F 39.8 °F 29.79 in SW 4.6 mph 4.6 mph 94% 0.05 in 0.0 W/m2
03:40 41.7 °F 40.1 °F 29.79 in WSW 5.8 mph 5.8 mph 94% 0.05 in 0.0 W/m2
03:45 42.0 °F 40.4 °F 29.78 in WSW 3.5 mph 3.5 mph 94% 0.05 in 0.0 W/m2
03:50 42.2 °F 40.6 °F 29.77 in WSW 3.5 mph 3.5 mph 94% 0.05 in 0.0 W/m2
03:55 42.3 °F 40.7 °F 29.76 in West 3.5 mph 3.5 mph 94% 0.05 in 0.0 W/m2
04:00 42.4 °F 40.8 °F 29.75 in West 3.0 mph 6.0 mph 94% 0.00 in 0.0 W/m2
04:05 42.5 °F 40.9 °F 29.75 in West 3.0 mph 6.0 mph 94% 0.01 in 0.0 W/m2
04:10 42.6 °F 41.0 °F 29.73 in WSW 3.0 mph 8.0 mph 94% 0.00 in 0.0 W/m2
04:15 42.8 °F 41.2 °F 29.72 in West 4.6 mph 4.6 mph 94% 0.04 in 0.0 W/m2
04:20 43.0 °F 41.4 °F 29.70 in West 8.1 mph 8.1 mph 94% 0.04 in 0.0 W/m2
04:25 43.4 °F 41.7 °F 29.69 in WSW 6.0 mph 10.0 mph 94% 0.00 in 0.0 W/m2
04:30 43.8 °F 42.2 °F 29.68 in NW 10.0 mph 10.0 mph 94% 0.03 in 0.0 W/m2
04:35 44.2 °F 42.3 °F 29.67 in West 6.0 mph 10.0 mph 93% 0.00 in 0.0 W/m2
04:40 44.7 °F 42.8 °F 29.66 in WNW 6.9 mph 6.9 mph 93% 0.02 in 0.0 W/m2
04:45 45.1 °F 42.9 °F 29.65 in West 13.0 mph 13.0 mph 92% 0.03 in 0.0 W/m2
04:50 45.5 °F 43.0 °F 29.64 in WNW 11.5 mph 11.5 mph 91% 0.02 in 0.0 W/m2
04:55 45.6 °F 42.8 °F 29.62 in WNW 11.5 mph 11.5 mph 90% 0.02 in 0.0 W/m2
05:00 45.9 °F 43.1 °F 29.64 in WSW 11.5 mph 11.5 mph 90% 0.01 in 0.0 W/m2
05:05 46.0 °F 43.2 °F 29.65 in West 11.5 mph 11.5 mph 90% 0.01 in 0.0 W/m2
05:10 46.2 °F 43.4 °F 29.64 in WNW 11.5 mph 11.5 mph 90% 0.01 in 0.0 W/m2
05:15 46.5 °F 43.7 °F 29.63 in NW 10.4 mph 10.4 mph 90% 0.01 in 0.0 W/m2
05:20 46.7 °F 43.9 °F 29.63 in West 13.8 mph 13.8 mph 90% 0.01 in 0.0 W/m2
05:25 46.8 °F 43.7 °F 29.60 in WNW 12.7 mph 12.7 mph 89% 0.01 in 0.0 W/m2
05:30 46.9 °F 44.1 °F 29.60 in WNW 15.0 mph 15.0 mph 90% 0.01 in 0.0 W/m2
05:35 47.1 °F 44.0 °F 29.60 in NW 10.4 mph 10.4 mph 89% 0.01 in 0.0 W/m2
05:40 47.2 °F 44.1 °F 29.60 in West 9.2 mph 9.2 mph 89% 0.01 in 0.0 W/m2
05:45 47.5 °F 44.1 °F 29.60 in West 15.0 mph 15.0 mph 88% 0.00 in 0.0 W/m2
05:50 48.0 °F 44.6 °F 29.61 in West 12.7 mph 12.7 mph 88% 0.00 in 0.0 W/m2
05:55 48.3 °F 44.6 °F 29.60 in West 8.1 mph 8.1 mph 87% 0.00 in 0.0 W/m2
06:00 48.5 °F 44.8 °F 29.59 in WNW 7.0 mph 16.0 mph 87% 0.00 in 0.0 W/m2
06:05 48.8 °F 45.1 °F 29.60 in WNW 17.0 mph 17.0 mph 87% 0.00 in 0.0 W/m2
06:10 49.4 °F 45.4 °F 29.60 in WNW 15.0 mph 15.0 mph 86% 0.00 in 0.0 W/m2
06:15 49.7 °F 45.4 °F 29.60 in NW 19.6 mph 19.6 mph 85% 0.00 in 0.0 W/m2
06:20 49.9 °F 45.3 °F 29.60 in WNW 18.4 mph 18.4 mph 84% 0.00 in 0.0 W/m2
06:25 50.0 °F 45.4 °F 29.59 in WNW 10.4 mph 10.4 mph 84% 0.00 in 0.0 W/m2
06:30 50.0 °F 45.4 °F 29.60 in WSW 10.4 mph 10.4 mph 84% 0.00 in 0.0 W/m2
06:35 50.2 °F 45.6 °F 29.60 in West 12.7 mph 12.7 mph 84% 0.00 in 0.0 W/m2
06:40 50.6 °F 45.9 °F 29.61 in NW 16.1 mph 16.1 mph 84% 0.00 in 0.0 W/m2
06:45 50.8 °F 45.8 °F 29.60 in NW 20.7 mph 20.7 mph 83% 0.00 in 0.0 W/m2
06:50 51.0 °F 46.0 °F 29.60 in WNW 15.0 mph 15.0 mph 83% 0.00 in 0.0 W/m2
06:55 51.0 °F 46.0 °F 29.60 in North 17.3 mph 17.3 mph 83% 0.00 in 0.0 W/m2
07:00 51.8 °F 46.5 °F 29.60 in WNW 16.1 mph 16.1 mph 82% 0.00 in 0.0 W/m2
07:05 51.7 °F 46.7 °F 29.61 in NW 19.6 mph 19.6 mph 83% 0.00 in 0.0 W/m2
07:10 52.3 °F 47.0 °F 29.60 in WNW 17.3 mph 17.3 mph 82% 0.00 in 0.0 W/m2
07:15 52.2 °F 46.9 °F 29.60 in WNW 12.7 mph 14.3 mph 82% 0.00 in 0.0 W/m2
07:20 52.2 °F 46.9 °F 29.60 in WNW 16.1 mph 16.1 mph 82% 0.00 in 0.0 W/m2
07:25 52.6 °F 47.6 °F 29.59 in WNW 19.6 mph 19.6 mph 83% 0.00 in 0.0 W/m2
07:30 52.9 °F 47.6 °F 29.60 in North 13.8 mph 13.8 mph 82% 0.00 in 0.0 W/m2
07:35 52.8 °F 47.5 °F 29.60 in WNW 18.4 mph 18.4 mph 82% 0.00 in 0.0 W/m2
07:40 52.8 °F 47.8 °F 29.60 in NW 17.3 mph 17.3 mph 83% 0.00 in 0.0 W/m2
07:45 53.0 °F 48.3 °F 29.60 in WNW 12.0 mph 24.0 mph 84% 0.00 in 0.0 W/m2
07:50 52.7 °F 48.3 °F 29.61 in WNW 25.3 mph 25.3 mph 85% 0.00 in 0.0 W/m2
07:55 52.6 °F 48.2 °F 29.61 in WNW 19.6 mph 19.6 mph 85% 0.00 in 0.0 W/m2
08:00 52.9 °F 48.8 °F 29.61 in NW 12.0 mph 22.0 mph 86% 0.00 in 0.0 W/m2
08:05 52.8 °F 49.0 °F 29.61 in NW 12.7 mph 12.7 mph 87% 0.00 in 0.0 W/m2
08:10 52.6 °F 49.1 °F 29.61 in NW 10.0 mph 11.7 mph 88% 0.00 in 0.0 W/m2
08:15 52.6 °F 49.1 °F 29.61 in NW 12.0 mph 12.0 mph 88% 0.00 in 0.0 W/m2
08:20 52.6 °F 49.4 °F 29.61 in NW 10.0 mph 18.0 mph 89% 0.00 in 0.0 W/m2
08:25 52.9 °F 49.4 °F 29.61 in NW 8.0 mph 17.0 mph 88% 0.00 in 0.0 W/m2
08:30 53.2 °F 49.7 °F 29.62 in NW 8.0 mph 16.0 mph 88% 0.00 in 0.0 W/m2
08:35 54.4 °F 50.9 °F 29.62 in NNW 15.0 mph 15.0 mph 88% 0.00 in 0.0 W/m2
08:40 55.6 °F 51.5 °F 29.61 in NNW 23.0 mph 23.0 mph 86% 0.00 in 0.0 W/m2
08:45 55.7 °F 51.3 °F 29.62 in NW 19.6 mph 19.6 mph 85% 0.00 in 0.0 W/m2
08:50 55.8 °F 51.4 °F 29.61 in NW 17.3 mph 17.3 mph 85% 0.00 in 0.0 W/m2
west seneca weather
Compliments of Weather Underground - 4 mb